sensor_id;sensor_type;location;lat;lon;timestamp;P1;durP1;ratioP1;P2;durP2;ratioP2
53479;SDS011;56133;51.012;-1.648;2022-11-21T00:00:48;16.90;;;4.20;;
53479;SDS011;56133;51.012;-1.648;2022-11-21T00:03:15;21.25;;;4.38;;
53479;SDS011;56133;51.012;-1.648;2022-11-21T00:05:45;23.83;;;4.07;;
53479;SDS011;56133;51.012;-1.648;2022-11-21T00:08:12;17.35;;;3.72;;
53479;SDS011;56133;51.012;-1.648;2022-11-21T00:10:39;20.00;;;3.63;;
53479;SDS011;56133;51.012;-1.648;2022-11-21T00:13:05;23.60;;;5.03;;
53479;SDS011;56133;51.012;-1.648;2022-11-21T00:15:31;22.52;;;5.20;;
53479;SDS011;56133;51.012;-1.648;2022-11-21T00:18:00;16.50;;;4.28;;
53479;SDS011;56133;51.012;-1.648;2022-11-21T00:20:27;22.35;;;4.95;;
53479;SDS011;56133;51.012;-1.648;2022-11-21T00:22:52;18.15;;;3.47;;
53479;SDS011;56133;51.012;-1.648;2022-11-21T00:25:18;15.70;;;3.33;;
53479;SDS011;56133;51.012;-1.648;2022-11-21T00:27:43;19.20;;;4.53;;
53479;SDS011;56133;51.012;-1.648;2022-11-21T00:30:09;14.95;;;3.50;;
53479;SDS011;56133;51.012;-1.648;2022-11-21T00:32:36;13.43;;;3.80;;
53479;SDS011;56133;51.012;-1.648;2022-11-21T00:35:02;20.67;;;5.72;;
53479;SDS011;56133;51.012;-1.648;2022-11-21T00:37:28;34.15;;;6.72;;
53479;SDS011;56133;51.012;-1.648;2022-11-21T00:39:53;21.65;;;5.55;;
53479;SDS011;56133;51.012;-1.648;2022-11-21T00:42:19;16.05;;;4.68;;
53479;SDS011;56133;51.012;-1.648;2022-11-21T00:44:44;27.92;;;4.78;;
53479;SDS011;56133;51.012;-1.648;2022-11-21T00:47:09;20.52;;;4.05;;
53479;SDS011;56133;51.012;-1.648;2022-11-21T00:49:35;20.83;;;4.32;;
53479;SDS011;56133;51.012;-1.648;2022-11-21T00:52:00;21.95;;;4.18;;
53479;SDS011;56133;51.012;-1.648;2022-11-21T00:54:26;27.20;;;5.28;;
53479;SDS011;56133;51.012;-1.648;2022-11-21T00:56:51;26.17;;;4.63;;
53479;SDS011;56133;51.012;-1.648;2022-11-21T00:59:18;21.80;;;5.40;;
53479;SDS011;56133;51.012;-1.648;2022-11-21T01:01:43;19.40;;;3.70;;
53479;SDS011;56133;51.012;-1.648;2022-11-21T01:04:09;27.88;;;4.55;;
53479;SDS011;56133;51.012;-1.648;2022-11-21T01:06:36;25.27;;;4.68;;
53479;SDS011;56133;51.012;-1.648;2022-11-21T01:09:02;23.38;;;4.20;;
53479;SDS011;56133;51.012;-1.648;2022-11-21T01:11:28;16.17;;;3.70;;
53479;SDS011;56133;51.012;-1.648;2022-11-21T01:13:54;29.00;;;4.32;;
53479;SDS011;56133;51.012;-1.648;2022-11-21T01:16:21;33.75;;;4.57;;
53479;SDS011;56133;51.012;-1.648;2022-11-21T01:18:49;27.38;;;4.18;;
53479;SDS011;56133;51.012;-1.648;2022-11-21T01:21:18;24.45;;;4.25;;
53479;SDS011;56133;51.012;-1.648;2022-11-21T01:23:52;12.38;;;2.78;;
53479;SDS011;56133;51.012;-1.648;2022-11-21T01:26:22;16.65;;;3.58;;
53479;SDS011;56133;51.012;-1.648;2022-11-21T01:28:49;16.75;;;3.92;;
53479;SDS011;56133;51.012;-1.648;2022-11-21T01:33:44;22.00;;;4.05;;
53479;SDS011;56133;51.012;-1.648;2022-11-21T01:36:11;17.50;;;3.85;;
53479;SDS011;56133;51.012;-1.648;2022-11-21T01:38:39;20.08;;;3.35;;
53479;SDS011;56133;51.012;-1.648;2022-11-21T01:41:07;22.33;;;4.20;;
53479;SDS011;56133;51.012;-1.648;2022-11-21T01:43:34;23.40;;;4.13;;
53479;SDS011;56133;51.012;-1.648;2022-11-21T01:46:02;19.75;;;3.88;;
53479;SDS011;56133;51.012;-1.648;2022-11-21T01:50:57;18.25;;;4.38;;
53479;SDS011;56133;51.012;-1.648;2022-11-21T01:53:27;17.02;;;4.28;;
53479;SDS011;56133;51.012;-1.648;2022-11-21T01:55:52;20.08;;;3.53;;
53479;SDS011;56133;51.012;-1.648;2022-11-21T01:58:18;21.58;;;4.65;;
53479;SDS011;56133;51.012;-1.648;2022-11-21T02:00:44;19.02;;;4.10;;
53479;SDS011;56133;51.012;-1.648;2022-11-21T02:03:12;14.80;;;3.25;;
53479;SDS011;56133;51.012;-1.648;2022-11-21T02:05:42;24.23;;;4.05;;
53479;SDS011;56133;51.012;-1.648;2022-11-21T02:08:10;23.65;;;3.67;;
53479;SDS011;56133;51.012;-1.648;2022-11-21T02:10:44;19.50;;;3.47;;
53479;SDS011;56133;51.012;-1.648;2022-11-21T02:13:17;23.25;;;4.50;;
53479;SDS011;56133;51.012;-1.648;2022-11-21T02:15:43;19.60;;;3.42;;
53479;SDS011;56133;51.012;-1.648;2022-11-21T02:18:09;23.83;;;3.58;;
53479;SDS011;56133;51.012;-1.648;2022-11-21T02:20:34;22.27;;;3.85;;
53479;SDS011;56133;51.012;-1.648;2022-11-21T02:25:34;21.70;;;3.80;;
53479;SDS011;56133;51.012;-1.648;2022-11-21T02:28:04;23.05;;;4.68;;
53479;SDS011;56133;51.012;-1.648;2022-11-21T02:30:33;24.67;;;4.93;;
53479;SDS011;56133;51.012;-1.648;2022-11-21T02:33:01;28.10;;;4.45;;
53479;SDS011;56133;51.012;-1.648;2022-11-21T02:35:27;26.38;;;4.55;;
53479;SDS011;56133;51.012;-1.648;2022-11-21T02:38:37;22.90;;;4.07;;
53479;SDS011;56133;51.012;-1.648;2022-11-21T02:40:43;28.08;;;4.15;;
53479;SDS011;56133;51.012;-1.648;2022-11-21T02:43:16;32.67;;;4.82;;
53479;SDS011;56133;51.012;-1.648;2022-11-21T02:45:47;21.27;;;4.35;;
53479;SDS011;56133;51.012;-1.648;2022-11-21T02:48:13;28.33;;;4.57;;
53479;SDS011;56133;51.012;-1.648;2022-11-21T02:50:39;22.88;;;4.32;;
53479;SDS011;56133;51.012;-1.648;2022-11-21T02:53:12;26.83;;;4.00;;
53479;SDS011;56133;51.012;-1.648;2022-11-21T02:55:39;24.73;;;4.95;;
53479;SDS011;56133;51.012;-1.648;2022-11-21T02:58:05;26.70;;;4.70;;
53479;SDS011;56133;51.012;-1.648;2022-11-21T03:00:31;21.77;;;4.75;;
53479;SDS011;56133;51.012;-1.648;2022-11-21T03:02:57;23.33;;;3.88;;
53479;SDS011;56133;51.012;-1.648;2022-11-21T03:05:23;28.17;;;4.63;;
53479;SDS011;56133;51.012;-1.648;2022-11-21T03:07:48;29.50;;;4.18;;
53479;SDS011;56133;51.012;-1.648;2022-11-21T03:10:14;23.92;;;4.40;;
53479;SDS011;56133;51.012;-1.648;2022-11-21T03:12:41;15.15;;;3.10;;
53479;SDS011;56133;51.012;-1.648;2022-11-21T03:15:08;13.70;;;3.15;;
53479;SDS011;56133;51.012;-1.648;2022-11-21T03:17:35;14.13;;;3.08;;
53479;SDS011;56133;51.012;-1.648;2022-11-21T03:20:01;18.27;;;3.35;;
53479;SDS011;56133;51.012;-1.648;2022-11-21T03:22:27;16.83;;;3.67;;
53479;SDS011;56133;51.012;-1.648;2022-11-21T03:24:52;15.68;;;2.75;;
53479;SDS011;56133;51.012;-1.648;2022-11-21T03:27:18;14.48;;;2.97;;
53479;SDS011;56133;51.012;-1.648;2022-11-21T03:29:43;9.35;;;2.70;;
53479;SDS011;56133;51.012;-1.648;2022-11-21T03:32:09;26.00;;;3.90;;
53479;SDS011;56133;51.012;-1.648;2022-11-21T03:34:34;23.77;;;4.30;;
53479;SDS011;56133;51.012;-1.648;2022-11-21T03:37:00;24.35;;;5.53;;
53479;SDS011;56133;51.012;-1.648;2022-11-21T03:39:25;19.40;;;4.32;;
53479;SDS011;56133;51.012;-1.648;2022-11-21T03:41:50;34.80;;;5.55;;
53479;SDS011;56133;51.012;-1.648;2022-11-21T03:44:16;27.38;;;4.63;;
53479;SDS011;56133;51.012;-1.648;2022-11-21T03:46:42;32.03;;;4.75;;
53479;SDS011;56133;51.012;-1.648;2022-11-21T03:49:09;25.50;;;4.70;;
53479;SDS011;56133;51.012;-1.648;2022-11-21T03:51:35;32.33;;;4.85;;
53479;SDS011;56133;51.012;-1.648;2022-11-21T03:54:01;47.05;;;5.38;;
53479;SDS011;56133;51.012;-1.648;2022-11-21T03:56:28;20.75;;;4.38;;
53479;SDS011;56133;51.012;-1.648;2022-11-21T03:58:53;25.30;;;5.03;;
53479;SDS011;56133;51.012;-1.648;2022-11-21T04:01:19;25.15;;;4.88;;
53479;SDS011;56133;51.012;-1.648;2022-11-21T04:03:45;28.42;;;5.15;;
53479;SDS011;56133;51.012;-1.648;2022-11-21T04:06:11;27.08;;;5.38;;
53479;SDS011;56133;51.012;-1.648;2022-11-21T04:08:38;35.58;;;5.35;;
53479;SDS011;56133;51.012;-1.648;2022-11-21T04:11:03;28.05;;;5.88;;
53479;SDS011;56133;51.012;-1.648;2022-11-21T04:13:29;29.55;;;6.50;;
53479;SDS011;56133;51.012;-1.648;2022-11-21T04:15:55;21.52;;;5.03;;
53479;SDS011;56133;51.012;-1.648;2022-11-21T04:18:20;25.20;;;5.95;;
53479;SDS011;56133;51.012;-1.648;2022-11-21T04:20:46;34.25;;;6.07;;
53479;SDS011;56133;51.012;-1.648;2022-11-21T04:23:11;32.78;;;5.60;;
53479;SDS011;56133;51.012;-1.648;2022-11-21T04:25:37;31.65;;;5.90;;
53479;SDS011;56133;51.012;-1.648;2022-11-21T04:28:03;34.05;;;6.53;;
53479;SDS011;56133;51.012;-1.648;2022-11-21T04:30:29;34.80;;;7.55;;
53479;SDS011;56133;51.012;-1.648;2022-11-21T04:32:56;27.27;;;6.30;;
53479;SDS011;56133;51.012;-1.648;2022-11-21T04:35:22;25.45;;;6.88;;
53479;SDS011;56133;51.012;-1.648;2022-11-21T04:37:48;27.08;;;6.63;;
53479;SDS011;56133;51.012;-1.648;2022-11-21T04:40:14;49.80;;;9.00;;
53479;SDS011;56133;51.012;-1.648;2022-11-21T04:42:44;38.72;;;7.97;;
53479;SDS011;56133;51.012;-1.648;2022-11-21T04:45:11;37.90;;;7.35;;
53479;SDS011;56133;51.012;-1.648;2022-11-21T04:47:45;29.15;;;6.53;;
53479;SDS011;56133;51.012;-1.648;2022-11-21T04:50:11;49.20;;;9.23;;
53479;SDS011;56133;51.012;-1.648;2022-11-21T04:52:39;40.45;;;10.43;;
53479;SDS011;56133;51.012;-1.648;2022-11-21T04:55:05;42.60;;;10.00;;
53479;SDS011;56133;51.012;-1.648;2022-11-21T04:57:31;33.90;;;7.57;;
53479;SDS011;56133;51.012;-1.648;2022-11-21T04:59:56;31.98;;;7.45;;
53479;SDS011;56133;51.012;-1.648;2022-11-21T05:02:22;27.63;;;6.75;;
53479;SDS011;56133;51.012;-1.648;2022-11-21T05:04:48;27.70;;;6.57;;
53479;SDS011;56133;51.012;-1.648;2022-11-21T05:07:13;36.75;;;7.50;;
53479;SDS011;56133;51.012;-1.648;2022-11-21T05:09:39;34.92;;;8.15;;
53479;SDS011;56133;51.012;-1.648;2022-11-21T05:12:05;67.43;;;12.98;;
53479;SDS011;56133;51.012;-1.648;2022-11-21T05:14:49;32.70;;;7.32;;
53479;SDS011;56133;51.012;-1.648;2022-11-21T05:17:15;31.05;;;6.90;;
53479;SDS011;56133;51.012;-1.648;2022-11-21T05:19:40;25.67;;;6.10;;
53479;SDS011;56133;51.012;-1.648;2022-11-21T05:22:06;35.20;;;7.25;;
53479;SDS011;56133;51.012;-1.648;2022-11-21T05:24:31;36.08;;;8.07;;
53479;SDS011;56133;51.012;-1.648;2022-11-21T05:26:57;30.33;;;7.53;;
53479;SDS011;56133;51.012;-1.648;2022-11-21T05:29:22;32.67;;;7.82;;
53479;SDS011;56133;51.012;-1.648;2022-11-21T05:31:48;26.25;;;7.43;;
53479;SDS011;56133;51.012;-1.648;2022-11-21T05:34:13;28.48;;;7.55;;
53479;SDS011;56133;51.012;-1.648;2022-11-21T05:36:39;27.65;;;7.50;;
53479;SDS011;56133;51.012;-1.648;2022-11-21T05:39:04;42.60;;;9.20;;
53479;SDS011;56133;51.012;-1.648;2022-11-21T05:41:29;32.78;;;7.90;;
53479;SDS011;56133;51.012;-1.648;2022-11-21T05:43:55;25.98;;;7.78;;
53479;SDS011;56133;51.012;-1.648;2022-11-21T05:46:22;29.73;;;7.68;;
53479;SDS011;56133;51.012;-1.648;2022-11-21T05:48:48;31.52;;;8.57;;
53479;SDS011;56133;51.012;-1.648;2022-11-21T05:51:16;32.42;;;8.80;;
53479;SDS011;56133;51.012;-1.648;2022-11-21T05:53:42;31.50;;;9.63;;
53479;SDS011;56133;51.012;-1.648;2022-11-21T05:56:10;30.77;;;8.30;;
53479;SDS011;56133;51.012;-1.648;2022-11-21T05:58:37;30.10;;;8.05;;
53479;SDS011;56133;51.012;-1.648;2022-11-21T06:01:03;41.58;;;7.97;;
53479;SDS011;56133;51.012;-1.648;2022-11-21T06:03:31;27.40;;;7.65;;
53479;SDS011;56133;51.012;-1.648;2022-11-21T06:06:04;31.35;;;7.30;;
53479;SDS011;56133;51.012;-1.648;2022-11-21T06:08:37;31.02;;;9.13;;
53479;SDS011;56133;51.012;-1.648;2022-11-21T06:11:08;26.42;;;7.28;;
53479;SDS011;56133;51.012;-1.648;2022-11-21T06:13:35;34.92;;;8.13;;
53479;SDS011;56133;51.012;-1.648;2022-11-21T06:16:02;40.47;;;7.70;;
53479;SDS011;56133;51.012;-1.648;2022-11-21T06:18:31;29.70;;;6.78;;
53479;SDS011;56133;51.012;-1.648;2022-11-21T06:21:02;29.92;;;7.00;;
53479;SDS011;56133;51.012;-1.648;2022-11-21T06:23:32;37.17;;;7.72;;
53479;SDS011;56133;51.012;-1.648;2022-11-21T06:26:00;33.25;;;7.95;;
53479;SDS011;56133;51.012;-1.648;2022-11-21T06:28:29;34.05;;;8.02;;
53479;SDS011;56133;51.012;-1.648;2022-11-21T06:31:00;35.28;;;8.15;;
53479;SDS011;56133;51.012;-1.648;2022-11-21T06:33:33;26.85;;;7.63;;
53479;SDS011;56133;51.012;-1.648;2022-11-21T06:36:03;27.55;;;7.40;;
53479;SDS011;56133;51.012;-1.648;2022-11-21T06:38:30;32.47;;;7.05;;
53479;SDS011;56133;51.012;-1.648;2022-11-21T06:40:56;33.40;;;6.95;;
53479;SDS011;56133;51.012;-1.648;2022-11-21T06:43:22;33.38;;;7.05;;
53479;SDS011;56133;51.012;-1.648;2022-11-21T06:45:47;27.83;;;6.60;;
53479;SDS011;56133;51.012;-1.648;2022-11-21T06:48:12;33.90;;;7.00;;
53479;SDS011;56133;51.012;-1.648;2022-11-21T06:50:38;31.83;;;6.50;;
53479;SDS011;56133;51.012;-1.648;2022-11-21T06:53:03;35.80;;;6.40;;
53479;SDS011;56133;51.012;-1.648;2022-11-21T06:55:29;37.22;;;6.45;;
53479;SDS011;56133;51.012;-1.648;2022-11-21T06:57:56;35.33;;;7.10;;
53479;SDS011;56133;51.012;-1.648;2022-11-21T07:00:23;34.42;;;7.20;;
53479;SDS011;56133;51.012;-1.648;2022-11-21T07:02:49;27.88;;;6.82;;
53479;SDS011;56133;51.012;-1.648;2022-11-21T07:05:14;35.92;;;6.95;;
53479;SDS011;56133;51.012;-1.648;2022-11-21T07:07:39;33.72;;;7.22;;
53479;SDS011;56133;51.012;-1.648;2022-11-21T07:10:05;40.38;;;7.03;;
53479;SDS011;56133;51.012;-1.648;2022-11-21T07:12:31;33.83;;;7.20;;
53479;SDS011;56133;51.012;-1.648;2022-11-21T07:15:17;32.15;;;6.60;;
53479;SDS011;56133;51.012;-1.648;2022-11-21T07:17:42;27.90;;;6.40;;
53479;SDS011;56133;51.012;-1.648;2022-11-21T07:20:08;32.22;;;6.82;;
53479;SDS011;56133;51.012;-1.648;2022-11-21T07:22:34;37.53;;;7.78;;
53479;SDS011;56133;51.012;-1.648;2022-11-21T07:24:59;39.70;;;7.00;;
53479;SDS011;56133;51.012;-1.648;2022-11-21T07:27:25;29.77;;;5.78;;
53479;SDS011;56133;51.012;-1.648;2022-11-21T07:29:50;34.72;;;6.57;;
53479;SDS011;56133;51.012;-1.648;2022-11-21T07:32:16;34.40;;;6.88;;
53479;SDS011;56133;51.012;-1.648;2022-11-21T07:34:41;44.47;;;6.82;;
53479;SDS011;56133;51.012;-1.648;2022-11-21T07:37:07;39.75;;;6.65;;
53479;SDS011;56133;51.012;-1.648;2022-11-21T07:39:32;32.63;;;6.35;;
53479;SDS011;56133;51.012;-1.648;2022-11-21T07:41:58;30.70;;;6.10;;
53479;SDS011;56133;51.012;-1.648;2022-11-21T07:44:23;41.50;;;6.68;;
53479;SDS011;56133;51.012;-1.648;2022-11-21T07:46:52;35.85;;;6.57;;
53479;SDS011;56133;51.012;-1.648;2022-11-21T07:49:18;37.53;;;7.15;;
53479;SDS011;56133;51.012;-1.648;2022-11-21T07:51:44;38.15;;;7.28;;
53479;SDS011;56133;51.012;-1.648;2022-11-21T07:54:09;40.45;;;7.65;;
53479;SDS011;56133;51.012;-1.648;2022-11-21T07:56:35;46.65;;;7.45;;
53479;SDS011;56133;51.012;-1.648;2022-11-21T07:59:00;43.92;;;6.40;;
53479;SDS011;56133;51.012;-1.648;2022-11-21T08:01:26;35.47;;;6.78;;
53479;SDS011;56133;51.012;-1.648;2022-11-21T08:03:51;38.28;;;7.22;;
53479;SDS011;56133;51.012;-1.648;2022-11-21T08:06:16;44.45;;;7.20;;
53479;SDS011;56133;51.012;-1.648;2022-11-21T08:08:42;32.33;;;7.05;;
53479;SDS011;56133;51.012;-1.648;2022-11-21T08:11:08;39.55;;;7.10;;
53479;SDS011;56133;51.012;-1.648;2022-11-21T08:13:33;38.00;;;5.95;;
53479;SDS011;56133;51.012;-1.648;2022-11-21T08:16:01;34.35;;;5.78;;
53479;SDS011;56133;51.012;-1.648;2022-11-21T08:18:29;48.20;;;7.30;;
53479;SDS011;56133;51.012;-1.648;2022-11-21T08:20:55;51.40;;;6.88;;
53479;SDS011;56133;51.012;-1.648;2022-11-21T08:23:20;34.03;;;5.70;;
53479;SDS011;56133;51.012;-1.648;2022-11-21T08:25:46;44.42;;;6.18;;
53479;SDS011;56133;51.012;-1.648;2022-11-21T08:28:11;40.85;;;6.13;;
53479;SDS011;56133;51.012;-1.648;2022-11-21T08:30:37;40.92;;;5.72;;
53479;SDS011;56133;51.012;-1.648;2022-11-21T08:33:04;42.97;;;5.88;;
53479;SDS011;56133;51.012;-1.648;2022-11-21T08:35:30;44.88;;;6.43;;
53479;SDS011;56133;51.012;-1.648;2022-11-21T08:37:59;39.22;;;6.35;;
53479;SDS011;56133;51.012;-1.648;2022-11-21T08:40:26;41.45;;;6.47;;
53479;SDS011;56133;51.012;-1.648;2022-11-21T08:43:06;46.17;;;6.18;;
53479;SDS011;56133;51.012;-1.648;2022-11-21T08:45:33;44.80;;;5.95;;
53479;SDS011;56133;51.012;-1.648;2022-11-21T08:47:59;43.78;;;4.88;;
53479;SDS011;56133;51.012;-1.648;2022-11-21T08:50:25;44.70;;;6.22;;
53479;SDS011;56133;51.012;-1.648;2022-11-21T08:52:52;45.50;;;5.68;;
53479;SDS011;56133;51.012;-1.648;2022-11-21T08:55:22;43.55;;;6.25;;
53479;SDS011;56133;51.012;-1.648;2022-11-21T08:57:48;40.92;;;5.75;;
53479;SDS011;56133;51.012;-1.648;2022-11-21T09:00:13;49.80;;;6.20;;
53479;SDS011;56133;51.012;-1.648;2022-11-21T09:02:39;43.83;;;5.60;;
53479;SDS011;56133;51.012;-1.648;2022-11-21T09:05:05;40.20;;;5.03;;
53479;SDS011;56133;51.012;-1.648;2022-11-21T09:07:31;33.35;;;5.20;;
53479;SDS011;56133;51.012;-1.648;2022-11-21T09:09:56;40.17;;;4.63;;
53479;SDS011;56133;51.012;-1.648;2022-11-21T09:12:21;46.58;;;4.65;;
53479;SDS011;56133;51.012;-1.648;2022-11-21T09:14:47;36.75;;;4.65;;
53479;SDS011;56133;51.012;-1.648;2022-11-21T09:17:31;30.90;;;5.80;;
53479;SDS011;56133;51.012;-1.648;2022-11-21T09:20:15;31.23;;;4.55;;
53479;SDS011;56133;51.012;-1.648;2022-11-21T09:22:40;29.40;;;4.18;;
53479;SDS011;56133;51.012;-1.648;2022-11-21T09:25:06;33.17;;;4.63;;
53479;SDS011;56133;51.012;-1.648;2022-11-21T09:27:32;35.88;;;5.15;;
53479;SDS011;56133;51.012;-1.648;2022-11-21T09:29:57;32.08;;;4.82;;
53479;SDS011;56133;51.012;-1.648;2022-11-21T09:32:23;29.55;;;3.72;;
53479;SDS011;56133;51.012;-1.648;2022-11-21T09:34:48;40.55;;;5.15;;
53479;SDS011;56133;51.012;-1.648;2022-11-21T09:37:14;33.92;;;4.30;;
53479;SDS011;56133;51.012;-1.648;2022-11-21T09:39:39;33.65;;;4.68;;
53479;SDS011;56133;51.012;-1.648;2022-11-21T09:45:04;37.38;;;4.80;;
53479;SDS011;56133;51.012;-1.648;2022-11-21T09:47:31;37.35;;;4.72;;
53479;SDS011;56133;51.012;-1.648;2022-11-21T09:53:08;37.70;;;4.93;;
53479;SDS011;56133;51.012;-1.648;2022-11-21T09:55:47;32.80;;;4.72;;
53479;SDS011;56133;51.012;-1.648;2022-11-21T10:00:45;35.75;;;5.97;;
53479;SDS011;56133;51.012;-1.648;2022-11-21T10:03:10;35.95;;;5.15;;
53479;SDS011;56133;51.012;-1.648;2022-11-21T10:05:40;41.38;;;5.28;;
53479;SDS011;56133;51.012;-1.648;2022-11-21T10:08:16;32.67;;;5.07;;
53479;SDS011;56133;51.012;-1.648;2022-11-21T10:10:54;41.58;;;4.93;;
53479;SDS011;56133;51.012;-1.648;2022-11-21T10:32:51;33.50;;;5.38;;
53479;SDS011;56133;51.012;-1.648;2022-11-21T10:34:57;26.17;;;4.03;;
53479;SDS011;56133;51.012;-1.648;2022-11-21T10:37:36;25.20;;;4.75;;
53479;SDS011;56133;51.012;-1.648;2022-11-21T10:40:07;32.63;;;4.35;;
53479;SDS011;56133;51.012;-1.648;2022-11-21T10:42:43;26.88;;;4.28;;
53479;SDS011;56133;51.012;-1.648;2022-11-21T10:45:15;31.42;;;4.35;;
53479;SDS011;56133;51.012;-1.648;2022-11-21T10:47:42;24.13;;;3.92;;
53479;SDS011;56133;51.012;-1.648;2022-11-21T10:52:35;26.02;;;4.22;;
53479;SDS011;56133;51.012;-1.648;2022-11-21T10:55:08;21.27;;;3.35;;
53479;SDS011;56133;51.012;-1.648;2022-11-21T10:57:40;27.15;;;3.85;;
53479;SDS011;56133;51.012;-1.648;2022-11-21T11:02:41;23.65;;;2.90;;
53479;SDS011;56133;51.012;-1.648;2022-11-21T11:08:03;13.48;;;2.03;;
53479;SDS011;56133;51.012;-1.648;2022-11-21T11:10:32;12.48;;;2.25;;
53479;SDS011;56133;51.012;-1.648;2022-11-21T11:13:15;12.15;;;1.88;;
53479;SDS011;56133;51.012;-1.648;2022-11-21T11:21:26;25.85;;;1.95;;
53479;SDS011;56133;51.012;-1.648;2022-11-21T11:23:53;16.70;;;1.77;;
53479;SDS011;56133;51.012;-1.648;2022-11-21T11:29:14;15.75;;;1.60;;
53479;SDS011;56133;51.012;-1.648;2022-11-21T11:34:48;12.33;;;1.97;;
53479;SDS011;56133;51.012;-1.648;2022-11-21T11:37:39;18.77;;;2.07;;
53479;SDS011;56133;51.012;-1.648;2022-11-21T11:40:12;14.45;;;1.95;;
53479;SDS011;56133;51.012;-1.648;2022-11-21T11:43:44;18.27;;;2.33;;
53479;SDS011;56133;51.012;-1.648;2022-11-21T11:49:21;19.95;;;2.60;;
53479;SDS011;56133;51.012;-1.648;2022-11-21T11:52:22;26.83;;;3.53;;
53479;SDS011;56133;51.012;-1.648;2022-11-21T11:54:51;25.58;;;2.85;;
53479;SDS011;56133;51.012;-1.648;2022-11-21T11:57:22;19.83;;;2.33;;
53479;SDS011;56133;51.012;-1.648;2022-11-21T11:59:50;20.67;;;2.92;;
53479;SDS011;56133;51.012;-1.648;2022-11-21T12:02:28;20.55;;;2.75;;
53479;SDS011;56133;51.012;-1.648;2022-11-21T12:05:28;17.27;;;2.35;;
53479;SDS011;56133;51.012;-1.648;2022-11-21T12:08:02;21.13;;;2.75;;
53479;SDS011;56133;51.012;-1.648;2022-11-21T12:10:40;14.55;;;2.72;;
53479;SDS011;56133;51.012;-1.648;2022-11-21T12:13:30;22.20;;;2.40;;
53479;SDS011;56133;51.012;-1.648;2022-11-21T12:15:58;18.77;;;3.05;;
53479;SDS011;56133;51.012;-1.648;2022-11-21T12:21:12;18.10;;;3.67;;
53479;SDS011;56133;51.012;-1.648;2022-11-21T12:34:07;27.38;;;3.75;;
53479;SDS011;56133;51.012;-1.648;2022-11-21T12:37:03;18.60;;;2.58;;
53479;SDS011;56133;51.012;-1.648;2022-11-21T12:50:46;17.60;;;2.42;;
53479;SDS011;56133;51.012;-1.648;2022-11-21T12:56:46;14.35;;;1.90;;
53479;SDS011;56133;51.012;-1.648;2022-11-21T12:59:16;14.85;;;2.15;;
53479;SDS011;56133;51.012;-1.648;2022-11-21T13:04:36;12.98;;;1.67;;
53479;SDS011;56133;51.012;-1.648;2022-11-21T13:07:04;9.90;;;1.83;;
53479;SDS011;56133;51.012;-1.648;2022-11-21T13:09:36;9.68;;;1.40;;
53479;SDS011;56133;51.012;-1.648;2022-11-21T13:12:11;9.25;;;1.60;;
53479;SDS011;56133;51.012;-1.648;2022-11-21T13:25:10;8.85;;;1.55;;
53479;SDS011;56133;51.012;-1.648;2022-11-21T13:30:46;11.43;;;1.67;;
53479;SDS011;56133;51.012;-1.648;2022-11-21T13:38:49;9.55;;;1.67;;
53479;SDS011;56133;51.012;-1.648;2022-11-21T13:42:03;11.20;;;2.58;;
53479;SDS011;56133;51.012;-1.648;2022-11-21T13:49:37;11.00;;;1.85;;
53479;SDS011;56133;51.012;-1.648;2022-11-21T14:08:43;17.15;;;1.40;;
53479;SDS011;56133;51.012;-1.648;2022-11-21T14:11:43;28.52;;;9.10;;
53479;SDS011;56133;51.012;-1.648;2022-11-21T14:19:41;5.15;;;0.73;;
53479;SDS011;56133;51.012;-1.648;2022-11-21T14:22:13;4.43;;;0.70;;
53479;SDS011;56133;51.012;-1.648;2022-11-21T14:24:41;3.45;;;0.60;;
53479;SDS011;56133;51.012;-1.648;2022-11-21T14:27:07;7.90;;;1.20;;
53479;SDS011;56133;51.012;-1.648;2022-11-21T14:29:43;4.63;;;0.60;;
53479;SDS011;56133;51.012;-1.648;2022-11-21T14:32:15;8.38;;;1.90;;
53479;SDS011;56133;51.012;-1.648;2022-11-21T14:34:40;12.38;;;3.42;;
53479;SDS011;56133;51.012;-1.648;2022-11-21T14:37:06;13.93;;;3.88;;
53479;SDS011;56133;51.012;-1.648;2022-11-21T14:39:33;9.90;;;1.73;;
53479;SDS011;56133;51.012;-1.648;2022-11-21T14:42:04;18.63;;;3.42;;
53479;SDS011;56133;51.012;-1.648;2022-11-21T14:44:34;12.63;;;1.98;;
53479;SDS011;56133;51.012;-1.648;2022-11-21T14:47:18;16.50;;;2.55;;
53479;SDS011;56133;51.012;-1.648;2022-11-21T14:49:49;14.38;;;2.50;;
53479;SDS011;56133;51.012;-1.648;2022-11-21T14:57:17;12.98;;;1.90;;
53479;SDS011;56133;51.012;-1.648;2022-11-21T14:59:48;10.52;;;1.73;;
53479;SDS011;56133;51.012;-1.648;2022-11-21T15:02:19;15.32;;;2.40;;
53479;SDS011;56133;51.012;-1.648;2022-11-21T15:04:47;19.48;;;2.78;;
53479;SDS011;56133;51.012;-1.648;2022-11-21T15:07:25;12.68;;;1.70;;
53479;SDS011;56133;51.012;-1.648;2022-11-21T15:09:51;13.13;;;1.67;;
53479;SDS011;56133;51.012;-1.648;2022-11-21T15:14:49;21.98;;;2.92;;
53479;SDS011;56133;51.012;-1.648;2022-11-21T15:17:21;16.15;;;3.45;;
53479;SDS011;56133;51.012;-1.648;2022-11-21T15:20:01;13.00;;;2.67;;
53479;SDS011;56133;51.012;-1.648;2022-11-21T15:22:37;24.17;;;3.33;;
53479;SDS011;56133;51.012;-1.648;2022-11-21T15:25:13;13.05;;;2.20;;
53479;SDS011;56133;51.012;-1.648;2022-11-21T15:27:46;19.05;;;2.30;;
53479;SDS011;56133;51.012;-1.648;2022-11-21T15:43:49;26.42;;;3.72;;
53479;SDS011;56133;51.012;-1.648;2022-11-21T15:46:17;29.55;;;4.28;;
53479;SDS011;56133;51.012;-1.648;2022-11-21T15:48:46;22.83;;;3.50;;
53479;SDS011;56133;51.012;-1.648;2022-11-21T15:51:13;18.33;;;3.78;;
53479;SDS011;56133;51.012;-1.648;2022-11-21T15:53:40;26.00;;;3.70;;
53479;SDS011;56133;51.012;-1.648;2022-11-21T15:56:06;22.98;;;4.03;;
53479;SDS011;56133;51.012;-1.648;2022-11-21T15:58:33;28.13;;;3.72;;
53479;SDS011;56133;51.012;-1.648;2022-11-21T16:00:59;19.95;;;3.50;;
53479;SDS011;56133;51.012;-1.648;2022-11-21T16:03:24;30.85;;;5.13;;
53479;SDS011;56133;51.012;-1.648;2022-11-21T16:05:50;28.63;;;5.00;;
53479;SDS011;56133;51.012;-1.648;2022-11-21T16:08:15;31.63;;;4.63;;
53479;SDS011;56133;51.012;-1.648;2022-11-21T16:10:40;22.40;;;4.85;;
53479;SDS011;56133;51.012;-1.648;2022-11-21T16:13:06;31.75;;;6.20;;
53479;SDS011;56133;51.012;-1.648;2022-11-21T16:15:32;22.00;;;3.90;;
53479;SDS011;56133;51.012;-1.648;2022-11-21T16:17:58;27.20;;;4.38;;
53479;SDS011;56133;51.012;-1.648;2022-11-21T16:20:24;18.75;;;3.15;;
53479;SDS011;56133;51.012;-1.648;2022-11-21T16:22:49;29.48;;;5.80;;
53479;SDS011;56133;51.012;-1.648;2022-11-21T16:25:16;40.63;;;10.10;;
53479;SDS011;56133;51.012;-1.648;2022-11-21T16:27:41;25.52;;;6.45;;
53479;SDS011;56133;51.012;-1.648;2022-11-21T16:30:07;19.20;;;2.90;;
53479;SDS011;56133;51.012;-1.648;2022-11-21T16:32:33;23.35;;;3.28;;
53479;SDS011;56133;51.012;-1.648;2022-11-21T16:34:58;31.90;;;4.97;;
53479;SDS011;56133;51.012;-1.648;2022-11-21T16:37:24;28.95;;;3.65;;
53479;SDS011;56133;51.012;-1.648;2022-11-21T16:39:49;26.35;;;4.65;;
53479;SDS011;56133;51.012;-1.648;2022-11-21T16:42:18;26.48;;;4.22;;
53479;SDS011;56133;51.012;-1.648;2022-11-21T16:44:43;21.98;;;4.55;;
53479;SDS011;56133;51.012;-1.648;2022-11-21T16:47:09;25.88;;;4.43;;
53479;SDS011;56133;51.012;-1.648;2022-11-21T16:49:37;33.92;;;5.25;;
53479;SDS011;56133;51.012;-1.648;2022-11-21T16:52:07;32.20;;;5.90;;
53479;SDS011;56133;51.012;-1.648;2022-11-21T16:54:33;28.77;;;6.28;;
53479;SDS011;56133;51.012;-1.648;2022-11-21T16:56:58;27.42;;;4.68;;
53479;SDS011;56133;51.012;-1.648;2022-11-21T16:59:24;23.85;;;5.70;;
53479;SDS011;56133;51.012;-1.648;2022-11-21T17:01:49;32.10;;;4.55;;
53479;SDS011;56133;51.012;-1.648;2022-11-21T17:04:15;22.60;;;3.63;;